createdAt,value
2023-01-19T00:00:00.476Z,-4.3
2023-01-19T00:04:00.485Z,-4.3
2023-01-19T00:08:00.904Z,-4.3
2023-01-19T00:12:00.476Z,-4.4
2023-01-19T00:16:00.507Z,-4.3
2023-01-19T00:20:00.508Z,-4.5
2023-01-19T00:24:00.489Z,-4.4
2023-01-19T00:28:01.694Z,-4.3
2023-01-19T00:32:00.480Z,-4.5
2023-01-19T00:36:00.475Z,-4.5
2023-01-19T00:40:00.475Z,-4.5
2023-01-19T00:44:00.494Z,-4.5
2023-01-19T00:48:00.516Z,-4.5
2023-01-19T00:52:00.488Z,-4.5
2023-01-19T00:56:00.487Z,-4.7
2023-01-19T01:00:00.466Z,-4.6
2023-01-19T01:04:00.480Z,-4.7
2023-01-19T01:08:00.472Z,-4.7
2023-01-19T01:12:00.476Z,-4.8
2023-01-19T01:16:00.499Z,-4.9
2023-01-19T01:20:00.485Z,-5.0
2023-01-19T01:24:00.735Z,-4.9
2023-01-19T01:28:00.543Z,-4.9
2023-01-19T01:32:00.469Z,-5.1
2023-01-19T01:36:00.482Z,-5.2
2023-01-19T01:40:00.506Z,-5.3
2023-01-19T01:44:00.498Z,-5.4
2023-01-19T01:48:00.486Z,-5.5
2023-01-19T01:52:00.505Z,-5.5
2023-01-19T01:56:00.725Z,-5.5
2023-01-19T02:00:00.495Z,-5.6
2023-01-19T02:04:00.478Z,-5.7
2023-01-19T02:08:00.494Z,-5.4
2023-01-19T02:12:01.495Z,-5.4
2023-01-19T02:16:00.478Z,-5.4
2023-01-19T02:20:00.479Z,-5.3
2023-01-19T02:24:00.499Z,-5.4
2023-01-19T02:28:00.497Z,-5.3
2023-01-19T02:32:00.496Z,-5.4
2023-01-19T02:36:00.488Z,-5.4
2023-01-19T02:40:00.495Z,-5.3
2023-01-19T02:44:00.496Z,-5.3
2023-01-19T02:48:00.468Z,-5.4
2023-01-19T02:52:00.486Z,-5.5
2023-01-19T02:56:00.483Z,-5.5
2023-01-19T03:00:00.491Z,-5.6
2023-01-19T03:04:00.481Z,-5.8
2023-01-19T03:08:00.487Z,-5.9
2023-01-19T03:12:00.524Z,-5.7
2023-01-19T03:16:00.490Z,-5.8
2023-01-19T03:20:00.474Z,-5.8
2023-01-19T03:24:00.448Z,-5.9
2023-01-19T03:28:00.469Z,-6.0
2023-01-19T03:32:00.458Z,-6.0
2023-01-19T03:36:00.471Z,-5.9
2023-01-19T03:40:00.480Z,-6.0
2023-01-19T03:44:00.464Z,-5.8
2023-01-19T03:48:00.486Z,-5.9
2023-01-19T03:52:00.482Z,-5.9
2023-01-19T03:56:00.492Z,-5.9
2023-01-19T04:00:00.485Z,-6.0
2023-01-19T04:04:00.484Z,-6.1
2023-01-19T04:08:00.493Z,-6.1
2023-01-19T04:12:00.497Z,-6.1
2023-01-19T04:16:00.498Z,-6.0
2023-01-19T04:20:00.519Z,-5.9
2023-01-19T04:24:00.459Z,-6.0
2023-01-19T04:28:00.501Z,-6.1
2023-01-19T04:32:00.475Z,-6.1
2023-01-19T04:36:00.531Z,-5.7
2023-01-19T04:40:00.485Z,-5.8
2023-01-19T04:44:00.505Z,-5.8
2023-01-19T04:48:00.474Z,-5.9
2023-01-19T04:52:00.478Z,-5.9
2023-01-19T04:56:00.493Z,-6.0
2023-01-19T05:00:00.474Z,-6.1
2023-01-19T05:04:00.484Z,-6.1
2023-01-19T05:08:00.480Z,-6.1
2023-01-19T05:12:00.514Z,-6.0
2023-01-19T05:16:00.529Z,-6.1
2023-01-19T05:20:00.496Z,-6.1
2023-01-19T05:24:00.486Z,-6.0
2023-01-19T05:28:00.507Z,-6.0
2023-01-19T05:32:00.590Z,-6.1
2023-01-19T05:36:00.490Z,-6.2
2023-01-19T05:40:00.481Z,-6.1
2023-01-19T05:44:00.480Z,-6.2
2023-01-19T05:48:00.509Z,-6.1
2023-01-19T05:52:00.725Z,-6.0
2023-01-19T05:56:00.488Z,-6.1
2023-01-19T06:00:00.495Z,-6.2
2023-01-19T06:04:00.503Z,-6.1
2023-01-19T06:08:00.490Z,-6.0
2023-01-19T06:12:00.495Z,-6.1
2023-01-19T06:16:00.598Z,-6.0
2023-01-19T06:20:00.484Z,-6.1
2023-01-19T06:24:00.497Z,-6.3
2023-01-19T06:28:00.482Z,-6.2
2023-01-19T06:32:00.674Z,-6.3
2023-01-19T06:36:00.490Z,-6.3
2023-01-19T06:40:00.528Z,-6.3
2023-01-19T06:44:00.483Z,-6.3
2023-01-19T06:48:00.503Z,-6.4
2023-01-19T06:52:00.503Z,-6.5
2023-01-19T06:56:00.474Z,-6.5
2023-01-19T07:00:00.501Z,-6.5
2023-01-19T07:04:00.497Z,-6.5
2023-01-19T07:08:00.486Z,-6.2
2023-01-19T07:12:00.473Z,-6.3
2023-01-19T07:16:00.506Z,-6.4
2023-01-19T07:20:00.492Z,-6.3
2023-01-19T07:24:00.491Z,-6.2
2023-01-19T07:28:00.502Z,-6.2
2023-01-19T07:32:00.496Z,-6.1
2023-01-19T07:36:00.521Z,-6.1
2023-01-19T07:40:00.524Z,-6.1
2023-01-19T07:44:00.496Z,-6.2
2023-01-19T07:48:00.489Z,-6.2
2023-01-19T07:52:00.502Z,-6.1
2023-01-19T07:56:00.494Z,-6.0
2023-01-19T08:00:00.499Z,-6.0
2023-01-19T08:04:00.507Z,-6.0
2023-01-19T08:08:00.478Z,-5.9
2023-01-19T08:12:00.494Z,-5.5
2023-01-19T08:16:00.517Z,-5.4
2023-01-19T08:20:00.478Z,-5.1
2023-01-19T08:24:00.552Z,-4.8
2023-01-19T08:28:00.508Z,-4.7
2023-01-19T08:32:00.616Z,-4.4
2023-01-19T08:36:00.469Z,-4.3
2023-01-19T08:40:00.502Z,-4.3
2023-01-19T08:44:00.467Z,-4.2
2023-01-19T08:48:00.501Z,-4.0
2023-01-19T08:52:00.479Z,-3.9
2023-01-19T08:56:00.503Z,-3.8
2023-01-19T09:00:00.466Z,-3.7
2023-01-19T09:04:00.472Z,-3.5
2023-01-19T09:08:00.669Z,-3.4
2023-01-19T09:12:00.464Z,-3.4
2023-01-19T09:16:00.536Z,-3.2
2023-01-19T09:20:00.473Z,-3.2
2023-01-19T09:24:00.489Z,-3.0
2023-01-19T09:28:00.963Z,-3.0
2023-01-19T09:32:00.511Z,-2.8
2023-01-19T09:36:00.493Z,-2.8
2023-01-19T09:40:00.542Z,-2.7
2023-01-19T09:44:00.473Z,-2.7
2023-01-19T09:48:00.941Z,-2.6
2023-01-19T09:52:00.488Z,-2.5
2023-01-19T09:56:00.491Z,-2.4
2023-01-19T10:00:00.517Z,-2.3
2023-01-19T10:04:00.474Z,-2.3
2023-01-19T10:08:00.884Z,-2.3
2023-01-19T10:12:00.487Z,-2.2
2023-01-19T10:16:00.570Z,-2.1
2023-01-19T10:20:00.481Z,-2.1
2023-01-19T10:24:00.509Z,-2.0
2023-01-19T10:28:00.485Z,-1.9
2023-01-19T10:32:00.601Z,-1.8
2023-01-19T10:36:00.507Z,-1.7
2023-01-19T10:40:00.517Z,-1.7
2023-01-19T10:44:00.514Z,-1.6
2023-01-19T10:48:00.474Z,-1.6
2023-01-19T10:52:00.493Z,-1.5
2023-01-19T10:56:00.487Z,-1.4
2023-01-19T11:00:00.472Z,-1.4
2023-01-19T11:04:00.623Z,-1.3
2023-01-19T11:08:00.477Z,-1.2
2023-01-19T11:12:00.489Z,-1.0
2023-01-19T11:16:00.549Z,-1.0
2023-01-19T11:20:00.485Z,-0.9
2023-01-19T11:24:00.463Z,-0.7
2023-01-19T11:28:00.494Z,-0.5
2023-01-19T11:32:00.495Z,-0.1
2023-01-19T11:36:00.502Z,0.2
2023-01-19T11:40:00.555Z,0.8
2023-01-19T11:44:00.487Z,1.6
2023-01-19T11:48:00.759Z,2.1
2023-01-19T11:52:00.498Z,2.0
2023-01-19T11:56:00.466Z,2.1
2023-01-19T12:00:00.518Z,2.3
2023-01-19T12:04:00.477Z,2.2
2023-01-19T12:08:00.781Z,1.6
2023-01-19T12:12:00.463Z,1.5
2023-01-19T12:16:00.499Z,1.3
2023-01-19T12:20:00.496Z,1.1
2023-01-19T12:24:00.555Z,1.6
2023-01-19T12:28:00.532Z,1.7
2023-01-19T12:32:00.668Z,1.7
2023-01-19T12:36:00.486Z,1.6
2023-01-19T12:40:00.494Z,1.5
2023-01-19T12:44:00.507Z,1.1
2023-01-19T12:48:00.486Z,1.3
2023-01-19T12:52:00.479Z,1.4
2023-01-19T12:56:00.491Z,1.9
2023-01-19T13:00:00.469Z,1.8
2023-01-19T13:04:00.534Z,1.2
2023-01-19T13:08:00.488Z,0.9
2023-01-19T13:12:01.050Z,1.0
2023-01-19T13:16:00.543Z,0.9
2023-01-19T13:20:00.470Z,0.7
2023-01-19T13:24:00.496Z,0.7
2023-01-19T13:28:00.507Z,0.7
2023-01-19T13:32:00.471Z,0.7
2023-01-19T13:36:00.495Z,0.8
2023-01-19T13:40:00.866Z,0.8
2023-01-19T13:44:00.520Z,0.8
2023-01-19T13:48:00.497Z,0.7
2023-01-19T13:52:00.490Z,0.7
2023-01-19T13:56:00.468Z,0.7
2023-01-19T14:00:00.489Z,0.6
2023-01-19T14:04:00.473Z,0.5
2023-01-19T14:08:00.568Z,0.4
2023-01-19T14:12:00.524Z,0.3
2023-01-19T14:16:00.547Z,0.3
2023-01-19T14:20:00.565Z,0.1
2023-01-19T14:24:00.503Z,0.1
2023-01-19T14:28:00.489Z,-0.1
2023-01-19T14:32:00.477Z,-0.1
2023-01-19T14:36:00.499Z,-0.1
2023-01-19T14:40:00.511Z,-0.3
2023-01-19T14:44:00.465Z,-0.3
2023-01-19T14:48:00.518Z,-0.4
2023-01-19T14:52:00.477Z,-0.4
2023-01-19T14:56:00.502Z,-0.6
2023-01-19T15:00:00.488Z,-0.7
2023-01-19T15:04:00.499Z,-1.0
2023-01-19T15:08:00.473Z,-1.0
2023-01-19T15:12:00.478Z,-1.0
2023-01-19T15:16:00.559Z,-1.2
2023-01-19T15:20:00.524Z,-1.2
2023-01-19T15:24:00.515Z,-1.2
2023-01-19T15:28:00.506Z,-1.4
2023-01-19T15:32:00.471Z,-1.6
2023-01-19T15:36:00.483Z,-1.8
2023-01-19T15:40:00.492Z,-1.8
2023-01-19T15:44:00.480Z,-1.9
2023-01-19T15:48:00.475Z,-1.9
2023-01-19T15:52:00.492Z,-2.1
2023-01-19T15:56:00.497Z,-2.2
2023-01-19T16:00:00.501Z,-2.3
2023-01-19T16:04:00.479Z,-2.4
2023-01-19T16:08:01.962Z,-2.4
2023-01-19T16:12:00.504Z,-2.4
2023-01-19T16:16:00.496Z,-2.4
2023-01-19T16:20:00.484Z,-2.1
2023-01-19T16:24:00.508Z,-2.1
2023-01-19T16:28:00.488Z,-1.9
2023-01-19T16:32:00.554Z,-1.8
2023-01-19T16:36:00.524Z,-1.9
2023-01-19T16:40:00.498Z,-2.0
2023-01-19T16:44:00.481Z,-2.1
2023-01-19T16:48:00.500Z,-2.4
2023-01-19T16:52:00.497Z,-2.4
2023-01-19T16:56:00.507Z,-2.6
2023-01-19T17:00:00.513Z,-2.7
2023-01-19T17:04:00.499Z,-2.5
2023-01-19T17:08:00.500Z,-2.5
2023-01-19T17:12:00.496Z,-2.3
2023-01-19T17:16:00.474Z,-2.1
2023-01-19T17:20:00.531Z,-1.9
2023-01-19T17:24:00.514Z,-1.8
2023-01-19T17:28:00.490Z,-1.8
2023-01-19T17:32:00.471Z,-1.7
2023-01-19T17:36:00.498Z,-1.7
2023-01-19T17:40:00.493Z,-1.6
2023-01-19T17:44:00.522Z,-1.7
2023-01-19T17:48:00.492Z,-1.7
2023-01-19T17:52:00.482Z,-1.7
2023-01-19T17:56:00.473Z,-1.8
2023-01-19T18:00:00.463Z,-1.8
2023-01-19T18:04:00.483Z,-1.9
2023-01-19T18:08:00.468Z,-1.8
2023-01-19T18:12:00.510Z,-1.9
2023-01-19T18:16:00.482Z,-1.8
2023-01-19T18:20:00.471Z,-1.9
2023-01-19T18:24:00.474Z,-1.9
2023-01-19T18:28:00.536Z,-1.9
2023-01-19T18:32:00.494Z,-1.9
2023-01-19T18:36:00.507Z,-1.8
2023-01-19T18:40:00.504Z,-1.9
2023-01-19T18:44:00.493Z,-2.0
2023-01-19T18:48:00.470Z,-2.1
2023-01-19T18:52:00.484Z,-2.3
2023-01-19T18:56:00.482Z,-2.3
2023-01-19T19:00:00.527Z,-2.3
2023-01-19T19:04:00.483Z,-2.2
2023-01-19T19:08:00.516Z,-2.0
2023-01-19T19:12:00.496Z,-1.9
2023-01-19T19:16:00.536Z,-1.9
2023-01-19T19:20:00.501Z,-1.7
2023-01-19T19:24:00.525Z,-1.6
2023-01-19T19:28:00.531Z,-1.6
2023-01-19T19:32:00.481Z,-1.3
2023-01-19T19:36:00.459Z,-1.3
2023-01-19T19:40:00.484Z,-1.3
2023-01-19T19:44:00.715Z,-1.2
2023-01-19T19:48:00.523Z,-1.2
2023-01-19T19:52:00.519Z,-1.1
2023-01-19T19:56:00.462Z,-1.0
2023-01-19T20:00:00.478Z,-0.9
2023-01-19T20:04:00.489Z,-0.8
2023-01-19T20:08:00.501Z,-0.7
2023-01-19T20:12:00.507Z,-0.7
2023-01-19T20:16:00.515Z,-0.7
2023-01-19T20:20:00.492Z,-0.6
2023-01-19T20:24:00.515Z,-0.6
2023-01-19T20:28:00.496Z,-0.5
2023-01-19T20:32:00.487Z,-0.5
2023-01-19T20:36:00.490Z,-0.5
2023-01-19T20:40:00.465Z,-0.5
2023-01-19T20:44:00.512Z,-0.5
2023-01-19T20:48:00.495Z,-0.4
2023-01-19T20:52:00.496Z,-0.4
2023-01-19T20:56:00.472Z,-0.4
2023-01-19T21:00:00.493Z,-0.4
2023-01-19T21:04:00.488Z,-0.3
2023-01-19T21:08:00.506Z,-0.3
2023-01-19T21:12:00.482Z,-0.3
2023-01-19T21:16:00.544Z,-0.3
2023-01-19T21:20:00.484Z,-0.2
2023-01-19T21:24:00.571Z,-0.1
2023-01-19T21:28:00.481Z,-0.1
2023-01-19T21:32:00.569Z,-0.1
2023-01-19T21:36:00.503Z,0.0
2023-01-19T21:40:00.477Z,0.0
2023-01-19T21:44:00.491Z,0.1
2023-01-19T21:48:00.501Z,0.1
2023-01-19T21:52:00.492Z,0.1
2023-01-19T21:56:00.526Z,0.2
2023-01-19T22:00:00.470Z,0.2
2023-01-19T22:04:00.494Z,0.2
2023-01-19T22:08:00.485Z,0.2
2023-01-19T22:12:00.469Z,0.2
2023-01-19T22:16:00.524Z,0.2
2023-01-19T22:20:00.482Z,0.3
2023-01-19T22:24:00.523Z,0.3
2023-01-19T22:28:00.485Z,0.3
2023-01-19T22:32:00.462Z,0.3
2023-01-19T22:36:00.471Z,0.3
2023-01-19T22:40:00.478Z,0.3
2023-01-19T22:44:00.502Z,0.3
2023-01-19T22:48:00.484Z,0.3
2023-01-19T22:52:00.488Z,0.3
2023-01-19T22:56:00.489Z,0.3
2023-01-19T23:00:00.504Z,0.3
2023-01-19T23:04:00.506Z,0.3
2023-01-19T23:08:00.498Z,0.3
2023-01-19T23:12:00.508Z,0.3
2023-01-19T23:16:00.548Z,0.3
2023-01-19T23:20:00.512Z,0.3
2023-01-19T23:24:00.487Z,0.3
2023-01-19T23:28:00.504Z,0.3
2023-01-19T23:32:00.487Z,0.3
2023-01-19T23:36:00.512Z,0.3
2023-01-19T23:40:00.488Z,0.3
2023-01-19T23:44:00.507Z,0.2
2023-01-19T23:48:00.465Z,0.3
2023-01-19T23:52:00.471Z,0.3
2023-01-19T23:56:00.483Z,0.3
